createdAt,value
2017-12-16T00:02:20.367Z,99756.20
2017-12-16T00:04:47.887Z,99760.97
2017-12-16T00:07:15.467Z,99766.12
2017-12-16T00:09:43.062Z,99773.90
2017-12-16T00:12:10.592Z,99777.03
2017-12-16T00:14:38.116Z,99778.02
2017-12-16T00:17:05.661Z,99782.16
2017-12-16T00:19:33.181Z,99783.63
2017-12-16T00:22:00.815Z,99776.38
2017-12-16T00:24:28.349Z,99786.44
2017-12-16T00:26:55.901Z,99791.02
2017-12-16T00:29:23.451Z,99789.52
2017-12-16T00:31:50.996Z,99792.95
2017-12-16T00:34:18.519Z,99796.08
2017-12-16T00:36:46.095Z,99793.50
2017-12-16T00:39:13.617Z,99802.45
2017-12-16T00:41:41.136Z,99800.23
2017-12-16T00:44:08.693Z,99804.67
2017-12-16T00:46:36.212Z,99810.17
2017-12-16T00:49:03.798Z,99816.31
2017-12-16T00:51:31.324Z,99816.21
2017-12-16T00:53:58.839Z,99811.14
2017-12-16T00:56:26.424Z,99815.88
2017-12-16T00:58:53.942Z,99818.95
2017-12-16T01:01:21.509Z,99820.58
2017-12-16T01:03:49.067Z,99827.50
2017-12-16T01:06:16.589Z,99831.88
2017-12-16T01:08:44.114Z,99828.87
2017-12-16T01:11:11.656Z,99831.22
2017-12-16T01:13:39.167Z,99831.34
2017-12-16T01:16:06.709Z,99834.33
2017-12-16T01:18:34.232Z,99833.47
2017-12-16T01:21:02.108Z,99839.83
2017-12-16T01:23:29.636Z,99840.25
2017-12-16T01:25:57.158Z,99844.14
2017-12-16T01:28:24.740Z,99845.88
2017-12-16T01:30:52.274Z,99843.39
2017-12-16T01:33:19.820Z,99855.52
2017-12-16T01:38:51.277Z,99854.23
2017-12-16T01:41:18.861Z,99856.98
2017-12-16T01:43:46.395Z,99860.52
2017-12-16T01:46:13.918Z,99868.23
2017-12-16T01:48:41.858Z,99870.02
2017-12-16T01:51:09.497Z,99875.70
2017-12-16T01:53:37.049Z,99875.95
2017-12-16T01:56:04.618Z,99875.36
2017-12-16T01:58:32.156Z,99881.80
2017-12-16T02:00:59.789Z,99882.66
2017-12-16T02:03:27.328Z,99884.31
2017-12-16T02:05:54.857Z,99890.77
2017-12-16T02:08:22.424Z,99887.00
2017-12-16T02:10:49.955Z,99887.42
2017-12-16T02:13:17.483Z,99888.47
2017-12-16T02:15:45.076Z,99894.09
2017-12-16T02:18:12.621Z,99888.73
2017-12-16T02:20:40.155Z,99900.19
2017-12-16T02:23:07.716Z,99899.14
2017-12-16T02:25:35.673Z,99895.90
2017-12-16T02:28:03.212Z,99895.77
2017-12-16T02:30:30.770Z,99885.30
2017-12-16T02:32:58.369Z,99877.58
2017-12-16T02:35:25.929Z,99883.47
2017-12-16T02:37:53.477Z,99888.29
2017-12-16T02:40:21.081Z,99883.25
2017-12-16T02:42:48.625Z,99897.77
2017-12-16T02:45:16.155Z,99900.70
2017-12-16T02:47:43.745Z,99903.19
2017-12-16T02:50:11.286Z,99900.49
2017-12-16T02:52:38.832Z,99905.98
2017-12-16T02:55:06.728Z,99904.28
2017-12-16T02:57:34.265Z,99903.55
2017-12-16T03:00:01.804Z,99905.91
2017-12-16T03:02:29.379Z,99914.27
2017-12-16T03:04:56.920Z,99916.62
2017-12-16T03:07:24.477Z,99921.23
2017-12-16T03:09:52.099Z,99926.16
2017-12-16T03:12:19.633Z,99929.73
2017-12-16T03:14:47.180Z,99933.75
2017-12-16T03:17:14.752Z,99934.70
2017-12-16T03:19:42.296Z,99931.91
2017-12-16T03:22:09.831Z,99938.58
2017-12-16T03:24:37.427Z,99939.80
2017-12-16T03:27:04.977Z,99947.77
2017-12-16T03:29:32.530Z,99950.34
2017-12-16T03:32:00.472Z,99952.44
2017-12-16T03:34:28.003Z,99955.47
2017-12-16T03:36:55.544Z,99954.47
2017-12-16T03:39:23.481Z,99955.70
2017-12-16T03:41:51.020Z,99962.93
2017-12-16T03:44:18.557Z,99954.56
2017-12-16T03:46:46.119Z,99961.41
2017-12-16T03:49:13.648Z,99968.28
2017-12-16T03:51:41.264Z,99977.84
2017-12-16T03:54:08.792Z,99974.95
2017-12-16T03:56:36.327Z,99986.98
2017-12-16T03:59:03.928Z,99987.11
2017-12-16T04:01:31.472Z,99988.02
2017-12-16T04:03:59.043Z,99983.94
2017-12-16T04:06:26.586Z,99986.37
2017-12-16T04:08:54.177Z,99987.40
2017-12-16T04:11:21.696Z,99992.94
2017-12-16T04:13:49.233Z,99994.52
2017-12-16T04:16:16.840Z,99996.59
2017-12-16T04:18:44.375Z,99997.20
2017-12-16T04:21:12.709Z,99998.52
2017-12-16T04:23:40.302Z,99997.20
2017-12-16T04:26:07.848Z,99989.58
2017-12-16T04:28:35.388Z,99991.71
2017-12-16T04:31:02.979Z,99995.16
2017-12-16T04:33:30.516Z,99991.06
2017-12-16T04:35:58.068Z,99998.41
2017-12-16T04:38:25.619Z,99998.06
2017-12-16T04:40:53.195Z,99998.61
2017-12-16T04:43:20.844Z,100007.83
2017-12-16T04:45:48.397Z,100009.97
2017-12-16T04:48:15.987Z,100008.87
2017-12-16T04:50:43.537Z,100003.85
2017-12-16T04:53:11.093Z,100013.28
2017-12-16T04:55:39.399Z,100016.27
2017-12-16T04:58:06.946Z,100012.34
2017-12-16T05:00:34.485Z,100017.65
2017-12-16T05:03:02.387Z,100014.11
2017-12-16T05:05:29.917Z,100030.95
2017-12-16T05:07:57.462Z,100031.41
2017-12-16T05:10:25.433Z,100032.47
2017-12-16T05:12:53.003Z,100037.02
2017-12-16T05:15:20.532Z,100043.34
2017-12-16T05:17:48.134Z,100053.50
2017-12-16T05:20:15.685Z,100055.19
2017-12-16T05:22:43.232Z,100053.22
2017-12-16T05:25:10.824Z,100056.83
2017-12-16T05:27:38.349Z,100056.02
2017-12-16T05:30:05.892Z,100056.34
2017-12-16T05:32:33.793Z,100052.10
2017-12-16T05:35:01.336Z,100053.33
2017-12-16T05:37:28.881Z,100057.94
2017-12-16T05:39:56.803Z,100058.66
2017-12-16T05:42:24.417Z,100059.47
2017-12-16T05:44:51.941Z,100055.38
2017-12-16T05:47:19.533Z,100058.04
2017-12-16T05:49:47.080Z,100048.51
2017-12-16T05:52:14.611Z,100055.50
2017-12-16T05:54:42.189Z,100051.86
2017-12-16T05:57:09.741Z,100050.94
2017-12-16T05:59:37.310Z,100053.53
2017-12-16T06:02:04.854Z,100054.13
2017-12-16T06:04:32.446Z,100061.26
2017-12-16T06:06:59.989Z,100069.12
2017-12-16T06:09:27.549Z,100069.80
2017-12-16T06:11:55.464Z,100075.41
2017-12-16T06:14:22.998Z,100071.83
2017-12-16T06:16:50.530Z,100080.23
2017-12-16T06:19:18.437Z,100087.05
2017-12-16T06:21:45.995Z,100099.38
2017-12-16T06:24:13.544Z,100098.88
2017-12-16T06:26:41.132Z,100102.40
2017-12-16T06:29:08.689Z,100108.20
2017-12-16T06:31:36.229Z,100111.04
2017-12-16T06:34:03.821Z,100114.83
2017-12-16T06:36:31.372Z,100116.13
2017-12-16T06:38:58.919Z,100118.86
2017-12-16T06:41:26.521Z,100122.82
2017-12-16T06:43:54.051Z,100125.06
2017-12-16T06:46:21.584Z,100122.92
2017-12-16T06:48:49.161Z,100121.80
2017-12-16T06:51:16.720Z,100125.78
2017-12-16T06:53:44.321Z,100127.09
2017-12-16T06:56:11.865Z,100129.17
2017-12-16T06:58:39.426Z,100123.27
2017-12-16T07:01:06.983Z,100130.48
2017-12-16T07:03:34.588Z,100124.75
2017-12-16T07:06:02.154Z,100135.63
2017-12-16T07:08:29.684Z,100136.71
2017-12-16T07:10:57.628Z,100137.98
2017-12-16T07:13:25.155Z,100144.45
2017-12-16T07:15:52.692Z,100153.13
2017-12-16T07:18:20.264Z,100153.95
2017-12-16T07:20:47.806Z,100152.37
2017-12-16T07:23:15.344Z,100153.61
2017-12-16T07:25:42.949Z,100164.50
2017-12-16T07:28:10.497Z,100167.05
2017-12-16T07:30:38.049Z,100169.00
2017-12-16T07:33:05.884Z,100171.89
2017-12-16T07:35:33.420Z,100177.08
2017-12-16T07:38:00.950Z,100182.87
2017-12-16T07:40:28.515Z,100187.39
2017-12-16T07:42:56.029Z,100193.58
2017-12-16T07:45:23.547Z,100198.36
2017-12-16T07:47:51.132Z,100202.84
2017-12-16T07:50:18.648Z,100209.19
2017-12-16T07:52:46.195Z,100206.16
2017-12-16T07:55:14.158Z,100204.59
2017-12-16T07:57:41.695Z,100209.97
2017-12-16T08:00:09.230Z,100214.88
2017-12-16T08:02:36.799Z,100217.09
2017-12-16T08:05:04.398Z,100219.28
2017-12-16T08:07:31.912Z,100220.41
2017-12-16T08:09:59.428Z,100218.09
2017-12-16T08:12:26.987Z,100226.59
2017-12-16T08:14:54.533Z,100225.58
2017-12-16T08:17:22.102Z,100239.39
2017-12-16T08:19:49.640Z,100242.57
2017-12-16T08:22:17.168Z,100248.95
2017-12-16T08:24:44.688Z,100253.66
2017-12-16T08:27:12.265Z,100257.70
2017-12-16T08:29:39.801Z,100253.05
2017-12-16T08:32:07.320Z,100258.21
2017-12-16T08:34:35.217Z,100257.94
2017-12-16T08:37:02.736Z,100249.80
2017-12-16T08:39:30.256Z,100259.97
2017-12-16T08:41:57.840Z,100256.76
2017-12-16T08:44:25.369Z,100256.93
2017-12-16T08:46:52.884Z,100253.05
2017-12-16T08:49:20.424Z,100261.70
2017-12-16T08:51:47.935Z,100271.09
2017-12-16T08:54:15.895Z,100270.70
2017-12-16T08:56:43.412Z,100278.30
2017-12-16T08:59:10.948Z,100292.39
2017-12-16T09:01:38.723Z,100298.52
2017-12-16T09:04:06.251Z,100294.67
2017-12-16T09:06:33.773Z,100308.81
2017-12-16T09:09:01.330Z,100312.09
2017-12-16T09:11:28.840Z,100307.27
2017-12-16T09:13:56.355Z,100311.98
2017-12-16T09:16:23.904Z,100319.90
2017-12-16T09:18:51.431Z,100320.20
2017-12-16T09:21:19.008Z,100328.67
2017-12-16T09:23:46.517Z,100333.73
2017-12-16T09:26:14.034Z,100335.66
2017-12-16T09:28:41.572Z,100340.94
2017-12-16T09:31:09.112Z,100347.53
2017-12-16T09:33:36.624Z,100345.91
2017-12-16T09:36:04.160Z,100344.78
2017-12-16T09:38:31.705Z,100341.78
2017-12-16T09:40:59.284Z,100346.19
2017-12-16T09:43:26.850Z,100347.97
2017-12-16T09:45:54.359Z,100350.73
2017-12-16T09:48:21.883Z,100348.27
2017-12-16T09:50:49.767Z,100352.42
2017-12-16T09:53:17.290Z,100352.23
2017-12-16T09:55:44.800Z,100352.97
2017-12-16T09:58:12.340Z,100351.27
2017-12-16T10:00:39.853Z,100358.56
2017-12-16T10:03:07.394Z,100358.89
2017-12-16T10:05:34.957Z,100361.09
2017-12-16T10:08:02.517Z,100370.05
2017-12-16T10:10:30.041Z,100365.16
2017-12-16T10:12:57.601Z,100363.06
2017-12-16T10:15:25.135Z,100366.41
2017-12-16T10:17:52.668Z,100357.70
2017-12-16T10:20:20.245Z,100363.36
2017-12-16T10:22:47.747Z,100365.34
2017-12-16T10:25:15.251Z,100363.58
2017-12-16T10:27:42.820Z,100367.25
2017-12-16T10:30:10.344Z,100370.05
2017-12-16T10:32:37.868Z,100371.17
2017-12-16T10:35:05.404Z,100379.10
2017-12-16T10:37:33.263Z,100380.53
2017-12-16T10:40:00.772Z,100381.59
2017-12-16T10:42:28.340Z,100383.17
2017-12-16T10:44:55.885Z,100383.22
2017-12-16T10:47:23.411Z,100382.45
2017-12-16T10:49:50.940Z,100382.92
2017-12-16T10:52:18.449Z,100388.03
2017-12-16T10:54:46.032Z,100393.42
2017-12-16T10:57:13.544Z,100388.27
2017-12-16T10:59:41.048Z,100395.91
2017-12-16T11:02:08.923Z,100394.92
2017-12-16T11:04:36.432Z,100394.53
2017-12-16T11:07:03.957Z,100401.01
2017-12-16T11:09:31.501Z,100400.57
2017-12-16T11:11:59.004Z,100405.91
2017-12-16T11:14:26.936Z,100420.09
2017-12-16T11:16:54.443Z,100413.20
2017-12-16T11:19:21.955Z,100414.28
2017-12-16T11:21:49.498Z,100416.16
2017-12-16T11:24:17.040Z,100414.72
2017-12-16T11:26:44.611Z,100419.33
2017-12-16T11:29:12.156Z,100422.08
2017-12-16T11:31:39.734Z,100421.38
2017-12-16T11:34:07.261Z,100423.30
2017-12-16T11:36:34.777Z,100425.52
2017-12-16T11:39:02.342Z,100435.36
2017-12-16T11:41:29.848Z,100434.02
2017-12-16T11:43:57.355Z,100432.44
2017-12-16T11:46:24.885Z,100437.81
2017-12-16T11:48:52.392Z,100440.92
2017-12-16T11:51:19.949Z,100438.45
2017-12-16T11:53:47.455Z,100433.73
2017-12-16T11:56:14.977Z,100430.64
2017-12-16T11:58:42.542Z,100431.03
2017-12-16T12:01:10.082Z,100423.39
2017-12-16T12:03:37.588Z,100425.96
2017-12-16T12:06:05.560Z,100431.20
2017-12-16T12:08:33.068Z,100424.95
2017-12-16T12:11:00.590Z,100436.83
2017-12-16T12:13:28.132Z,100446.77
2017-12-16T12:15:55.660Z,100439.76
2017-12-16T12:18:23.165Z,100437.06
2017-12-16T12:20:50.719Z,100445.72
2017-12-16T12:23:18.224Z,100439.25
2017-12-16T12:25:45.730Z,100444.40
2017-12-16T12:28:13.412Z,100444.27
2017-12-16T12:30:40.939Z,100440.86
2017-12-16T12:33:08.538Z,100446.20
2017-12-16T12:35:36.440Z,100448.27
2017-12-16T12:38:03.944Z,100453.42
2017-12-16T12:40:31.470Z,100450.23
2017-12-16T12:42:59.079Z,100449.84
2017-12-16T12:45:26.584Z,100454.81
2017-12-16T12:47:54.084Z,100444.42
2017-12-16T12:50:21.636Z,100448.92
2017-12-16T12:52:49.153Z,100458.33
2017-12-16T12:55:16.666Z,100464.39
2017-12-16T12:57:44.191Z,100462.47
2017-12-16T13:00:11.704Z,100465.10
2017-12-16T13:02:39.249Z,100460.68
2017-12-16T13:05:06.837Z,100462.62
2017-12-16T13:07:34.472Z,100457.25
2017-12-16T13:10:01.980Z,100453.54
2017-12-16T13:12:29.500Z,100455.41
2017-12-16T13:14:57.074Z,100452.20
2017-12-16T13:17:24.661Z,100452.17
2017-12-16T13:19:52.168Z,100457.69
2017-12-16T13:22:19.710Z,100458.47
2017-12-16T13:24:47.250Z,100460.56
2017-12-16T13:27:14.768Z,100465.03
2017-12-16T13:29:42.630Z,100467.56
2017-12-16T13:32:10.148Z,100469.70
2017-12-16T13:34:37.656Z,100469.63
2017-12-16T13:37:05.233Z,100468.22
2017-12-16T13:39:32.757Z,100478.53
2017-12-16T13:42:00.276Z,100471.50
2017-12-16T13:44:27.864Z,100485.67
2017-12-16T13:46:55.368Z,100485.19
2017-12-16T13:49:22.871Z,100493.14
2017-12-16T13:51:50.400Z,100498.62
2017-12-16T13:54:17.979Z,100499.18
2017-12-16T13:56:45.492Z,100505.95
2017-12-16T13:59:13.000Z,100508.67
2017-12-16T14:01:40.527Z,100520.92
2017-12-16T14:04:08.037Z,100515.78
2017-12-16T14:06:35.586Z,100526.23
2017-12-16T14:09:03.183Z,100526.31
2017-12-16T14:11:30.723Z,100524.30
2017-12-16T14:13:58.233Z,100530.31
2017-12-16T14:16:25.755Z,100531.70
2017-12-16T14:18:53.265Z,100527.74
2017-12-16T14:21:20.837Z,100527.11
2017-12-16T14:23:48.354Z,100539.02
2017-12-16T14:26:15.861Z,100537.40
2017-12-16T14:28:43.420Z,100536.95
2017-12-16T14:31:10.937Z,100543.20
2017-12-16T14:33:38.459Z,100536.34
2017-12-16T14:36:06.026Z,100546.92
2017-12-16T14:38:33.531Z,100548.58
2017-12-16T14:41:01.054Z,100550.62
2017-12-16T14:43:28.653Z,100557.92
2017-12-16T14:45:56.158Z,100561.02
2017-12-16T14:48:23.668Z,100558.87
2017-12-16T14:50:51.195Z,100567.38
2017-12-16T14:53:18.724Z,100568.81
2017-12-16T14:55:46.238Z,100560.11
2017-12-16T14:58:13.804Z,100565.71
2017-12-16T15:00:41.311Z,100564.72
2017-12-16T15:03:08.816Z,100574.89
2017-12-16T15:05:36.386Z,100581.43
2017-12-16T15:08:03.951Z,100576.33
2017-12-16T15:10:31.472Z,100589.77
2017-12-16T15:12:59.373Z,100597.33
2017-12-16T15:15:26.876Z,100600.80
2017-12-16T15:17:54.372Z,100611.49
2017-12-16T15:20:21.961Z,100606.29
2017-12-16T15:22:49.492Z,100613.31
2017-12-16T15:25:17.054Z,100612.40
2017-12-16T15:27:44.574Z,100619.74
2017-12-16T15:30:12.128Z,100622.81
2017-12-16T15:32:39.627Z,100622.23
2017-12-16T15:35:07.142Z,100631.72
2017-12-16T15:37:34.683Z,100637.43
2017-12-16T15:40:02.221Z,100644.75
2017-12-16T15:42:30.140Z,100641.80
2017-12-16T15:44:57.707Z,100644.39
2017-12-16T15:47:25.251Z,100643.34
2017-12-16T15:49:52.858Z,100634.98
2017-12-16T15:52:20.365Z,100639.95
2017-12-16T15:54:47.878Z,100644.16
2017-12-16T15:57:15.776Z,100646.78
2017-12-16T15:59:43.369Z,100651.05
2017-12-16T16:02:10.905Z,100655.07
2017-12-16T16:04:38.799Z,100666.33
2017-12-16T16:07:06.312Z,100668.07
2017-12-16T16:09:33.837Z,100674.80
2017-12-16T16:12:01.392Z,100664.39
2017-12-16T16:14:28.928Z,100662.89
2017-12-16T16:16:56.443Z,100669.29
2017-12-16T16:19:23.980Z,100677.50
2017-12-16T16:21:51.942Z,100686.96
2017-12-16T16:24:19.447Z,100689.37
2017-12-16T16:26:46.971Z,100689.80
2017-12-16T16:29:14.585Z,100693.33
2017-12-16T16:31:42.092Z,100700.33
2017-12-16T16:34:09.627Z,100706.33
2017-12-16T16:36:37.165Z,100707.58
2017-12-16T16:39:04.751Z,100714.98
2017-12-16T16:41:32.312Z,100705.36
2017-12-16T16:43:59.851Z,100708.01
2017-12-16T16:46:27.369Z,100718.27
2017-12-16T16:48:54.928Z,100716.69
2017-12-16T16:51:22.432Z,100724.51
2017-12-16T16:53:49.944Z,100729.63
2017-12-16T16:56:17.467Z,100724.45
2017-12-16T16:58:45.047Z,100726.24
2017-12-16T17:01:12.563Z,100723.62
2017-12-16T17:03:40.073Z,100728.00
2017-12-16T17:06:08.136Z,100735.58
2017-12-16T17:08:35.674Z,100738.20
2017-12-16T17:11:03.191Z,100747.27
2017-12-16T17:13:31.080Z,100743.59
2017-12-16T17:15:58.613Z,100743.83
2017-12-16T17:18:26.132Z,100752.80
2017-12-16T17:20:54.387Z,100751.67
2017-12-16T17:23:21.901Z,100759.94
2017-12-16T17:25:49.399Z,100758.41
2017-12-16T17:28:16.985Z,100773.44
2017-12-16T17:30:44.513Z,100776.41
2017-12-16T17:33:12.060Z,100772.55
2017-12-16T17:35:39.661Z,100781.39
2017-12-16T17:38:07.182Z,100779.64
2017-12-16T17:40:34.717Z,100789.72
2017-12-16T17:43:02.289Z,100796.77
2017-12-16T17:45:29.911Z,100796.37
2017-12-16T17:47:57.429Z,100785.84
2017-12-16T17:50:24.958Z,100803.83
2017-12-16T17:52:52.511Z,100803.08
2017-12-16T17:55:20.019Z,100804.06
2017-12-16T17:57:47.532Z,100800.77
2017-12-16T18:00:15.109Z,100808.17
2017-12-16T18:02:42.632Z,100815.68
2017-12-16T18:05:10.139Z,100819.30
2017-12-16T18:07:37.726Z,100830.91
2017-12-16T18:10:05.244Z,100826.58
2017-12-16T18:12:32.757Z,100831.25
2017-12-16T18:15:00.296Z,100823.29
2017-12-16T18:17:27.832Z,100829.75
2017-12-16T18:19:55.366Z,100819.92
2017-12-16T18:22:22.932Z,100830.18
2017-12-16T18:24:50.469Z,100828.86
2017-12-16T18:27:17.988Z,100842.80
2017-12-16T18:29:45.587Z,100846.99
2017-12-16T18:32:13.113Z,100841.25
2017-12-16T18:34:40.709Z,100850.20
2017-12-16T18:37:08.271Z,100850.36
2017-12-16T18:39:35.794Z,100851.07
2017-12-16T18:42:03.328Z,100851.91
2017-12-16T18:44:30.930Z,100859.55
2017-12-16T18:46:58.492Z,100856.66
2017-12-16T18:49:26.010Z,100864.95
2017-12-16T18:51:53.538Z,100867.67
2017-12-16T18:54:21.129Z,100871.31
2017-12-16T18:56:48.660Z,100874.14
2017-12-16T18:59:16.189Z,100880.63
2017-12-16T19:01:43.775Z,100873.59
2017-12-16T19:04:11.295Z,100869.70
2017-12-16T19:06:38.804Z,100871.16
2017-12-16T19:09:06.683Z,100873.97
2017-12-16T19:11:34.202Z,100874.66
2017-12-16T19:14:01.764Z,100878.94
2017-12-16T19:16:29.349Z,100878.89
2017-12-16T19:18:56.870Z,100880.87
2017-12-16T19:21:24.382Z,100879.59
2017-12-16T19:23:51.953Z,100878.40
2017-12-16T19:26:19.478Z,100884.42
2017-12-16T19:28:46.996Z,100885.33
2017-12-16T19:31:14.566Z,100893.05
2017-12-16T19:33:42.101Z,100896.61
2017-12-16T19:36:09.611Z,100904.54
2017-12-16T19:38:37.478Z,100897.95
2017-12-16T19:41:04.992Z,100907.09
2017-12-16T19:43:32.508Z,100904.99
2017-12-16T19:46:00.041Z,100908.80
2017-12-16T19:48:27.608Z,100910.27
2017-12-16T19:50:55.157Z,100906.58
2017-12-16T19:53:22.697Z,100915.31
2017-12-16T19:55:50.292Z,100911.28
2017-12-16T19:58:17.812Z,100917.95
2017-12-16T20:00:45.406Z,100922.20
2017-12-16T20:03:13.424Z,100931.60
2017-12-16T20:05:41.371Z,100938.00
2017-12-16T20:08:08.883Z,100933.55
2017-12-16T20:10:36.415Z,100935.34
2017-12-16T20:13:03.965Z,100935.41
2017-12-16T20:15:31.488Z,100942.33
2017-12-16T20:17:59.041Z,100945.34
2017-12-16T20:20:26.577Z,100951.60
2017-12-16T20:22:54.137Z,100950.94
2017-12-16T20:25:21.671Z,100943.16
2017-12-16T20:27:49.643Z,100945.70
2017-12-16T20:30:17.156Z,100941.54
2017-12-16T20:32:44.676Z,100948.86
2017-12-16T20:35:12.249Z,100952.16
2017-12-16T20:37:39.828Z,100950.96
2017-12-16T20:40:07.349Z,100949.72
2017-12-16T20:42:34.908Z,100958.41
2017-12-16T20:45:02.872Z,100955.00
2017-12-16T20:47:30.407Z,100961.80
2017-12-16T20:49:57.995Z,100966.02
2017-12-16T20:52:25.534Z,100966.76
2017-12-16T20:54:53.056Z,100968.49
2017-12-16T20:57:20.580Z,100970.58
2017-12-16T20:59:48.147Z,100972.41
2017-12-16T21:02:15.675Z,100980.55
2017-12-16T21:04:43.192Z,100977.77
2017-12-16T21:07:11.104Z,100981.46
2017-12-16T21:09:38.624Z,100981.02
2017-12-16T21:12:06.141Z,100980.82
2017-12-16T21:14:33.680Z,100990.09
2017-12-16T21:17:01.196Z,100998.20
2017-12-16T21:19:28.773Z,100996.94
2017-12-16T21:21:56.429Z,101009.41
2017-12-16T21:24:23.960Z,101003.92
2017-12-16T21:26:51.497Z,101006.50
2017-12-16T21:29:19.047Z,101008.71
2017-12-16T21:31:46.625Z,101002.80
2017-12-16T21:34:14.149Z,101004.22
2017-12-16T21:36:41.685Z,101004.55
2017-12-16T21:39:09.253Z,101011.70
2017-12-16T21:41:36.773Z,101014.70
2017-12-16T21:44:04.292Z,101024.95
2017-12-16T21:46:31.835Z,101028.45
2017-12-16T21:48:59.356Z,101027.52
2017-12-16T21:51:26.909Z,101032.34
2017-12-16T21:53:54.424Z,101032.23
2017-12-16T21:56:21.934Z,101034.05
2017-12-16T21:58:49.503Z,101042.39
2017-12-16T22:01:17.024Z,101045.57
2017-12-16T22:03:44.613Z,101035.46
2017-12-16T22:06:12.147Z,101044.78
2017-12-16T22:08:39.698Z,101040.88
2017-12-16T22:11:07.212Z,101030.00
2017-12-16T22:13:35.172Z,101029.36
2017-12-16T22:16:02.679Z,101033.34
2017-12-16T22:18:30.219Z,101035.91
2017-12-16T22:20:58.098Z,101028.48
2017-12-16T22:23:25.616Z,101037.12
2017-12-16T22:25:53.145Z,101042.92
2017-12-16T22:28:20.683Z,101039.09
2017-12-16T22:30:48.224Z,101038.09
2017-12-16T22:33:15.744Z,101041.25
2017-12-16T22:35:43.304Z,101041.41
2017-12-16T22:38:10.838Z,101040.75
2017-12-16T22:40:38.394Z,101047.50
2017-12-16T22:43:06.361Z,101054.27
2017-12-16T22:45:34.075Z,101046.26
2017-12-16T22:48:01.603Z,101054.04
2017-12-16T22:50:29.149Z,101057.22
2017-12-16T22:52:56.729Z,101056.72
2017-12-16T22:55:24.272Z,101062.14
2017-12-16T22:57:51.797Z,101058.42
2017-12-16T23:00:19.394Z,101061.88
2017-12-16T23:02:46.937Z,101063.08
2017-12-16T23:05:14.489Z,101060.80
2017-12-16T23:07:42.105Z,101063.47
2017-12-16T23:10:09.644Z,101067.66
2017-12-16T23:12:37.184Z,101069.07
2017-12-16T23:15:04.759Z,101073.79
2017-12-16T23:17:32.320Z,101071.56
2017-12-16T23:19:59.876Z,101076.17
2017-12-16T23:22:27.456Z,101081.20
2017-12-16T23:24:54.996Z,101086.72
2017-12-16T23:27:22.536Z,101088.87
2017-12-16T23:29:50.109Z,101096.02
2017-12-16T23:32:17.649Z,101096.12
2017-12-16T23:34:45.192Z,101096.52
2017-12-16T23:37:12.762Z,101097.89
2017-12-16T23:39:40.323Z,101100.32
2017-12-16T23:42:07.917Z,101103.20
2017-12-16T23:44:35.461Z,101098.39
2017-12-16T23:47:03.013Z,101105.59
2017-12-16T23:49:30.581Z,101109.40
2017-12-16T23:51:58.153Z,101104.30
2017-12-16T23:54:25.672Z,101113.48
2017-12-16T23:56:53.239Z,101110.00
2017-12-16T23:59:20.780Z,101111.16
